createdAt,value
2023-05-22T00:01:43.662Z,19.4
2023-05-22T00:05:43.670Z,19.3
2023-05-22T00:07:43.722Z,19.4
2023-05-22T00:09:43.691Z,19.3
2023-05-22T00:11:43.662Z,19.2
2023-05-22T00:13:43.668Z,19.3
2023-05-22T00:19:43.697Z,19.2
2023-05-22T00:27:43.687Z,19.1
2023-05-22T00:29:43.672Z,19.2
2023-05-22T00:31:43.703Z,19.1
2023-05-22T00:35:43.709Z,19.0
2023-05-22T00:37:43.705Z,19.1
2023-05-22T00:39:43.715Z,19.0
2023-05-22T00:43:43.700Z,18.9
2023-05-22T00:47:43.720Z,19.0
2023-05-22T00:51:43.713Z,18.9
2023-05-22T00:53:43.706Z,19.0
2023-05-22T00:55:43.696Z,18.9
2023-05-22T00:57:43.709Z,19.0
2023-05-22T00:59:43.701Z,18.9
2023-05-22T01:03:43.829Z,18.8
2023-05-22T01:09:43.750Z,18.7
2023-05-22T01:11:43.709Z,18.6
2023-05-22T01:13:43.714Z,18.7
2023-05-22T01:15:43.745Z,18.5
2023-05-22T01:17:43.748Z,18.4
2023-05-22T01:21:43.730Z,18.5
2023-05-22T01:23:43.719Z,18.4
2023-05-22T01:31:43.744Z,18.3
2023-05-22T01:33:43.865Z,18.2
2023-05-22T01:35:43.729Z,18.1
2023-05-22T01:37:43.758Z,18.0
2023-05-22T01:39:43.740Z,17.9
2023-05-22T01:43:43.777Z,17.8
2023-05-22T01:45:43.752Z,17.9
2023-05-22T01:49:43.778Z,18.0
2023-05-22T01:53:43.765Z,17.9
2023-05-22T01:55:43.763Z,17.8
2023-05-22T01:57:43.753Z,17.9
2023-05-22T01:59:43.785Z,17.8
2023-05-22T02:01:43.950Z,17.9
2023-05-22T02:07:43.788Z,18.0
2023-05-22T02:09:43.773Z,17.9
2023-05-22T02:15:43.836Z,17.8
2023-05-22T02:17:43.783Z,17.7
2023-05-22T02:19:43.810Z,17.8
2023-05-22T02:21:43.766Z,17.7
2023-05-22T02:25:43.793Z,17.6
2023-05-22T02:27:43.789Z,17.7
2023-05-22T02:33:43.802Z,17.8
2023-05-22T02:35:43.788Z,17.7
2023-05-22T02:37:43.822Z,17.8
2023-05-22T02:43:43.832Z,17.6
2023-05-22T02:45:43.800Z,17.7
2023-05-22T02:47:43.868Z,17.6
2023-05-22T02:53:43.821Z,17.5
2023-05-22T02:55:43.818Z,17.6
2023-05-22T02:57:43.825Z,17.4
2023-05-22T03:01:43.849Z,17.3
2023-05-22T03:05:43.830Z,17.5
2023-05-22T03:07:45.011Z,17.4
2023-05-22T03:11:43.824Z,17.5
2023-05-22T03:13:43.814Z,17.3
2023-05-22T03:15:43.854Z,17.2
2023-05-22T03:21:43.842Z,17.3
2023-05-22T03:23:43.821Z,17.2
2023-05-22T03:25:43.826Z,17.1
2023-05-22T03:27:43.871Z,17.2
2023-05-22T03:31:43.836Z,17.0
2023-05-22T03:35:43.852Z,17.1
2023-05-22T03:37:43.863Z,17.0
2023-05-22T03:41:43.848Z,17.1
2023-05-22T03:49:43.889Z,17.0
2023-05-22T03:55:43.858Z,16.9
2023-05-22T04:05:43.880Z,17.0
2023-05-22T04:07:43.893Z,16.9
2023-05-22T04:09:43.890Z,16.8
2023-05-22T04:19:43.898Z,16.9
2023-05-22T04:25:43.892Z,16.8
2023-05-22T04:31:44.009Z,16.9
2023-05-22T04:35:43.886Z,16.8
2023-05-22T04:37:43.921Z,16.9
2023-05-22T04:43:43.912Z,16.8
2023-05-22T04:53:43.916Z,16.9
2023-05-22T05:05:43.932Z,16.8
2023-05-22T05:07:43.924Z,16.7
2023-05-22T05:09:43.920Z,16.8
2023-05-22T05:13:43.923Z,16.7
2023-05-22T05:15:43.912Z,16.8
2023-05-22T05:17:44.005Z,16.9
2023-05-22T05:19:43.930Z,16.8
2023-05-22T05:21:43.917Z,17.0
2023-05-22T05:23:43.935Z,16.9
2023-05-22T05:31:43.974Z,17.0
2023-05-22T05:37:43.967Z,17.1
2023-05-22T05:39:43.926Z,17.0
2023-05-22T05:41:43.939Z,17.2
2023-05-22T05:43:43.978Z,17.0
2023-05-22T05:47:43.957Z,17.2
2023-05-22T05:51:43.970Z,17.3
2023-05-22T05:59:43.962Z,17.4
2023-05-22T06:05:44.055Z,17.6
2023-05-22T06:09:44.011Z,17.5
2023-05-22T06:11:43.963Z,17.7
2023-05-22T06:13:43.962Z,17.6
2023-05-22T06:15:43.978Z,17.7
2023-05-22T06:19:43.987Z,17.9
2023-05-22T06:23:43.991Z,18.0
2023-05-22T06:25:43.986Z,18.1
2023-05-22T06:27:44.012Z,18.0
2023-05-22T06:31:44.025Z,18.2
2023-05-22T06:33:44.089Z,18.1
2023-05-22T06:35:43.992Z,18.2
2023-05-22T06:37:44.004Z,18.3
2023-05-22T06:39:44.003Z,18.2
2023-05-22T06:43:43.998Z,18.3
2023-05-22T06:45:44.051Z,18.5
2023-05-22T06:47:44.008Z,18.7
2023-05-22T06:51:44.022Z,18.6
2023-05-22T06:55:44.020Z,18.7
2023-05-22T06:57:44.053Z,18.8
2023-05-22T07:03:44.020Z,19.0
2023-05-22T07:05:44.079Z,19.1
2023-05-22T07:07:44.015Z,19.2
2023-05-22T07:11:44.050Z,19.1
2023-05-22T07:15:46.326Z,19.2
2023-05-22T07:17:44.054Z,19.5
2023-05-22T07:19:44.015Z,19.3
2023-05-22T07:21:44.053Z,19.5
2023-05-22T07:23:44.033Z,19.4
2023-05-22T07:27:44.032Z,19.7
2023-05-22T07:29:44.060Z,19.9
2023-05-22T07:31:44.129Z,19.7
2023-05-22T07:33:44.027Z,19.9
2023-05-22T07:35:44.055Z,19.8
2023-05-22T07:37:44.056Z,20.1
2023-05-22T07:43:44.062Z,20.0
2023-05-22T07:45:44.099Z,20.2
2023-05-22T07:47:44.094Z,20.1
2023-05-22T07:51:44.047Z,20.2
2023-05-22T07:53:44.069Z,20.1
2023-05-22T07:55:44.051Z,20.0
2023-05-22T07:57:44.079Z,20.2
2023-05-22T07:59:44.144Z,20.4
2023-05-22T08:01:44.077Z,20.5
2023-05-22T08:03:44.132Z,20.6
2023-05-22T08:05:44.072Z,20.7
2023-05-22T08:09:44.057Z,20.6
2023-05-22T08:13:44.081Z,20.8
2023-05-22T08:17:44.129Z,20.9
2023-05-22T08:19:44.161Z,21.0
2023-05-22T08:23:44.085Z,21.1
2023-05-22T08:27:44.125Z,21.2
2023-05-22T08:29:44.099Z,21.3
2023-05-22T08:31:44.139Z,21.4
2023-05-22T08:35:44.101Z,21.6
2023-05-22T08:39:44.116Z,21.4
2023-05-22T08:41:44.094Z,21.6
2023-05-22T08:43:44.095Z,21.8
2023-05-22T08:47:44.217Z,22.0
2023-05-22T08:49:44.169Z,22.1
2023-05-22T08:51:44.108Z,22.2
2023-05-22T08:53:44.111Z,22.1
2023-05-22T08:55:44.099Z,22.3
2023-05-22T08:57:44.147Z,22.5
2023-05-22T08:59:44.116Z,22.6
2023-05-22T09:07:44.143Z,22.9
2023-05-22T09:09:44.182Z,22.8
2023-05-22T09:11:44.111Z,22.9
2023-05-22T09:13:44.129Z,23.0
2023-05-22T09:17:44.147Z,22.8
2023-05-22T09:19:44.134Z,22.9
2023-05-22T09:21:44.130Z,23.1
2023-05-22T09:23:44.160Z,23.0
2023-05-22T09:27:44.140Z,23.1
2023-05-22T09:29:44.186Z,23.3
2023-05-22T09:31:44.650Z,23.2
2023-05-22T09:33:44.180Z,23.4
2023-05-22T09:35:44.180Z,23.3
2023-05-22T09:39:44.150Z,23.4
2023-05-22T09:45:44.173Z,23.5
2023-05-22T09:47:44.190Z,23.6
2023-05-22T09:49:44.152Z,23.8
2023-05-22T09:51:44.147Z,24.0
2023-05-22T09:55:44.183Z,24.1
2023-05-22T09:57:44.185Z,23.9
2023-05-22T09:59:44.206Z,24.0
2023-05-22T10:01:44.201Z,23.9
2023-05-22T10:05:44.211Z,24.1
2023-05-22T10:09:44.180Z,24.0
2023-05-22T10:11:44.188Z,24.2
2023-05-22T10:13:44.181Z,24.0
2023-05-22T10:15:44.212Z,23.9
2023-05-22T10:17:44.264Z,24.0
2023-05-22T10:23:44.199Z,24.1
2023-05-22T10:25:44.189Z,23.9
2023-05-22T10:29:44.221Z,24.1
2023-05-22T10:31:44.186Z,24.0
2023-05-22T10:33:44.245Z,24.1
2023-05-22T10:35:44.214Z,24.2
2023-05-22T10:37:44.199Z,24.3
2023-05-22T10:39:44.201Z,24.2
2023-05-22T10:41:44.213Z,24.4
2023-05-22T10:45:45.401Z,24.3
2023-05-22T10:47:44.295Z,24.5
2023-05-22T10:49:44.253Z,24.6
2023-05-22T10:51:44.206Z,24.9
2023-05-22T10:53:44.235Z,25.0
2023-05-22T10:55:44.216Z,25.1
2023-05-22T10:57:44.215Z,25.0
2023-05-22T11:01:44.262Z,24.8
2023-05-22T11:03:44.330Z,24.9
2023-05-22T11:05:44.221Z,24.8
2023-05-22T11:07:44.303Z,25.1
2023-05-22T11:09:44.230Z,25.3
2023-05-22T11:11:44.261Z,25.2
2023-05-22T11:13:44.254Z,25.3
2023-05-22T11:15:44.238Z,25.7
2023-05-22T11:17:44.300Z,25.5
2023-05-22T11:19:44.338Z,25.7
2023-05-22T11:21:44.237Z,25.6
2023-05-22T11:25:44.263Z,25.7
2023-05-22T11:27:44.267Z,25.8
2023-05-22T11:29:44.273Z,25.9
2023-05-22T11:31:44.333Z,26.0
2023-05-22T11:35:44.281Z,26.1
2023-05-22T11:39:44.304Z,26.2
2023-05-22T11:41:44.280Z,26.4
2023-05-22T11:43:44.273Z,26.1
2023-05-22T11:45:44.284Z,26.0
2023-05-22T11:47:44.279Z,26.1
2023-05-22T11:49:44.302Z,26.3
2023-05-22T11:53:44.274Z,26.5
2023-05-22T11:55:44.316Z,26.4
2023-05-22T11:57:44.320Z,26.3
2023-05-22T11:59:44.269Z,26.2
2023-05-22T12:01:44.300Z,26.3
2023-05-22T12:03:44.371Z,26.4
2023-05-22T12:05:44.297Z,26.6
2023-05-22T12:11:44.303Z,26.7
2023-05-22T12:15:44.299Z,26.8
2023-05-22T12:17:44.428Z,26.9
2023-05-22T12:19:44.323Z,26.8
2023-05-22T12:21:44.295Z,27.0
2023-05-22T12:23:44.286Z,26.9
2023-05-22T12:25:44.320Z,27.0
2023-05-22T12:29:44.317Z,26.9
2023-05-22T12:33:44.324Z,27.0
2023-05-22T12:35:44.305Z,27.1
2023-05-22T12:37:44.332Z,27.3
2023-05-22T12:39:44.342Z,27.4
2023-05-22T12:41:44.338Z,27.3
2023-05-22T12:43:44.354Z,27.2
2023-05-22T12:45:44.340Z,27.4
2023-05-22T12:49:44.356Z,27.3
2023-05-22T12:51:44.341Z,27.4
2023-05-22T12:53:44.322Z,27.5
2023-05-22T13:01:44.373Z,27.6
2023-05-22T13:03:44.332Z,27.8
2023-05-22T13:05:44.349Z,28.1
2023-05-22T13:07:44.340Z,28.2
2023-05-22T13:09:44.333Z,28.5
2023-05-22T13:11:44.406Z,28.4
2023-05-22T13:13:44.337Z,28.3
2023-05-22T13:15:44.409Z,28.4
2023-05-22T13:17:44.418Z,28.5
2023-05-22T13:19:44.345Z,28.2
2023-05-22T13:23:44.382Z,28.5
2023-05-22T13:25:44.355Z,28.3
2023-05-22T13:27:44.366Z,28.5
2023-05-22T13:29:44.396Z,28.6
2023-05-22T13:31:44.404Z,28.5
2023-05-22T13:33:44.373Z,28.8
2023-05-22T13:37:44.386Z,29.1
2023-05-22T13:39:44.373Z,29.2
2023-05-22T13:41:44.384Z,29.1
2023-05-22T13:43:44.373Z,29.2
2023-05-22T13:45:44.372Z,29.7
2023-05-22T13:47:44.465Z,29.5
2023-05-22T13:49:44.380Z,29.6
2023-05-22T13:51:44.391Z,29.7
2023-05-22T13:53:44.425Z,29.6
2023-05-22T13:55:44.390Z,29.7
2023-05-22T13:57:44.383Z,30.1
2023-05-22T13:59:44.426Z,30.2
2023-05-22T14:03:44.445Z,30.4
2023-05-22T14:05:44.415Z,30.8
2023-05-22T14:07:44.395Z,30.6
2023-05-22T14:09:44.392Z,30.8
2023-05-22T14:11:44.432Z,30.9
2023-05-22T14:13:44.396Z,30.5
2023-05-22T14:15:44.430Z,30.9
2023-05-22T14:17:44.522Z,30.8
2023-05-22T14:19:44.463Z,31.0
2023-05-22T14:21:44.401Z,30.9
2023-05-22T14:23:44.457Z,31.1
2023-05-22T14:25:44.429Z,30.8
2023-05-22T14:27:44.412Z,30.9
2023-05-22T14:29:44.462Z,31.2
2023-05-22T14:31:44.427Z,30.7
2023-05-22T14:33:44.414Z,31.0
2023-05-22T14:35:44.428Z,31.3
2023-05-22T14:37:44.434Z,30.9
2023-05-22T14:39:44.430Z,31.0
2023-05-22T14:41:44.438Z,31.1
2023-05-22T14:43:44.433Z,30.7
2023-05-22T14:47:44.514Z,30.8
2023-05-22T14:51:44.443Z,30.7
2023-05-22T14:53:44.480Z,30.3
2023-05-22T14:55:44.445Z,30.6
2023-05-22T14:57:44.463Z,30.5
2023-05-22T14:59:44.494Z,30.1
2023-05-22T15:01:44.543Z,30.0
2023-05-22T15:03:44.448Z,30.2
2023-05-22T15:05:44.479Z,30.1
2023-05-22T15:09:44.464Z,30.2
2023-05-22T15:11:44.477Z,30.3
2023-05-22T15:13:44.467Z,30.5
2023-05-22T15:17:44.620Z,30.6
2023-05-22T15:19:44.483Z,30.7
2023-05-22T15:21:44.479Z,30.8
2023-05-22T15:23:44.505Z,30.9
2023-05-22T15:25:44.471Z,31.0
2023-05-22T15:29:44.540Z,31.5
2023-05-22T15:33:44.474Z,31.1
2023-05-22T15:35:44.502Z,31.2
2023-05-22T15:37:44.485Z,31.5
2023-05-22T15:39:44.503Z,31.2
2023-05-22T15:41:51.564Z,31.7
2023-05-22T15:43:44.527Z,32.0
2023-05-22T15:45:44.889Z,31.7
2023-05-22T15:47:44.546Z,31.6
2023-05-22T15:49:44.489Z,31.8
2023-05-22T15:51:44.504Z,32.0
2023-05-22T15:53:44.500Z,31.7
2023-05-22T15:55:44.497Z,31.8
2023-05-22T15:57:44.676Z,31.1
2023-05-22T15:59:44.512Z,31.3
2023-05-22T16:01:44.546Z,31.0
2023-05-22T16:03:44.642Z,31.4
2023-05-22T16:05:44.514Z,31.3
2023-05-22T16:09:44.541Z,31.1
2023-05-22T16:11:44.526Z,31.0
2023-05-22T16:13:44.541Z,30.8
2023-05-22T16:15:44.742Z,30.5
2023-05-22T16:17:44.603Z,30.7
2023-05-22T16:19:44.521Z,30.6
2023-05-22T16:21:44.575Z,30.3
2023-05-22T16:23:44.528Z,30.5
2023-05-22T16:25:44.536Z,30.6
2023-05-22T16:29:44.545Z,30.5
2023-05-22T16:33:44.567Z,30.6
2023-05-22T16:37:44.576Z,30.4
2023-05-22T16:39:44.548Z,30.3
2023-05-22T16:43:44.590Z,30.4
2023-05-22T16:45:44.565Z,30.2
2023-05-22T16:47:44.611Z,30.1
2023-05-22T16:49:44.582Z,30.2
2023-05-22T16:51:44.574Z,30.0
2023-05-22T16:53:44.572Z,29.7
2023-05-22T16:55:44.602Z,29.9
2023-05-22T16:57:44.559Z,29.8
2023-05-22T16:59:44.574Z,29.7
2023-05-22T17:03:44.906Z,29.5
2023-05-22T17:05:44.579Z,29.4
2023-05-22T17:07:44.632Z,29.2
2023-05-22T17:11:44.584Z,29.0
2023-05-22T17:13:44.610Z,29.2
2023-05-22T17:15:44.583Z,29.0
2023-05-22T17:17:44.662Z,28.9
2023-05-22T17:23:44.617Z,28.8
2023-05-22T17:25:44.604Z,28.7
2023-05-22T17:29:44.596Z,28.6
2023-05-22T17:31:44.636Z,28.5
2023-05-22T17:33:44.616Z,28.4
2023-05-22T17:35:44.589Z,28.5
2023-05-22T17:37:44.633Z,28.4
2023-05-22T17:39:44.592Z,28.2
2023-05-22T17:41:44.604Z,28.1
2023-05-22T17:45:44.716Z,28.0
2023-05-22T17:47:44.652Z,27.9
2023-05-22T17:49:44.651Z,27.8
2023-05-22T17:51:44.619Z,27.6
2023-05-22T17:53:44.660Z,27.5
2023-05-22T17:55:44.629Z,27.4
2023-05-22T17:57:44.625Z,27.3
2023-05-22T18:01:44.690Z,27.0
2023-05-22T18:07:44.679Z,26.9
2023-05-22T18:09:44.669Z,26.8
2023-05-22T18:11:44.633Z,26.7
2023-05-22T18:13:44.682Z,26.5
2023-05-22T18:15:44.740Z,26.4
2023-05-22T18:19:44.686Z,26.2
2023-05-22T18:23:44.663Z,26.0
2023-05-22T18:27:44.676Z,25.8
2023-05-22T18:29:44.648Z,25.9
2023-05-22T18:41:44.702Z,26.0
2023-05-22T18:43:44.664Z,25.9
2023-05-22T18:45:44.676Z,26.0
2023-05-22T18:47:44.744Z,25.8
2023-05-22T18:51:44.713Z,25.6
2023-05-22T18:55:44.684Z,25.4
2023-05-22T18:57:44.720Z,25.3
2023-05-22T18:59:44.670Z,25.2
2023-05-22T19:03:44.719Z,25.1
2023-05-22T19:05:44.687Z,24.9
2023-05-22T19:09:44.739Z,24.8
2023-05-22T19:11:44.690Z,24.7
2023-05-22T19:15:44.700Z,24.6
2023-05-22T19:21:44.708Z,24.5
2023-05-22T19:25:44.709Z,24.4
2023-05-22T19:31:44.787Z,24.3
2023-05-22T19:39:44.749Z,24.1
2023-05-22T19:41:44.718Z,24.2
2023-05-22T19:43:44.734Z,24.1
2023-05-22T19:49:45.058Z,23.9
2023-05-22T19:51:44.746Z,23.8
2023-05-22T20:01:44.811Z,23.6
2023-05-22T20:03:44.897Z,23.4
2023-05-22T20:05:44.749Z,23.1
2023-05-22T20:09:44.781Z,22.9
2023-05-22T20:11:44.763Z,23.0
2023-05-22T20:13:44.742Z,23.1
2023-05-22T20:15:44.764Z,23.0
2023-05-22T20:17:44.856Z,23.1
2023-05-22T20:23:44.771Z,23.2
2023-05-22T20:31:44.817Z,23.3
2023-05-22T20:35:44.804Z,23.2
2023-05-22T20:43:44.793Z,23.1
2023-05-22T20:47:44.861Z,23.3
2023-05-22T20:49:44.786Z,23.2
2023-05-22T20:55:44.812Z,23.1
2023-05-22T20:59:44.830Z,23.2
2023-05-22T21:01:44.826Z,23.1
2023-05-22T21:03:44.805Z,23.2
2023-05-22T21:05:44.850Z,23.1
2023-05-22T21:07:44.806Z,23.0
2023-05-22T21:09:44.801Z,22.9
2023-05-22T21:13:44.822Z,22.8
2023-05-22T21:15:44.835Z,23.0
2023-05-22T21:19:44.858Z,22.9
2023-05-22T21:21:44.806Z,22.8
2023-05-22T21:23:44.838Z,22.6
2023-05-22T21:25:44.835Z,22.7
2023-05-22T21:27:44.817Z,22.6
2023-05-22T21:29:44.826Z,22.5
2023-05-22T21:35:44.845Z,22.6
2023-05-22T21:37:44.859Z,22.5
2023-05-22T21:47:44.893Z,22.4
2023-05-22T21:53:44.860Z,22.3
2023-05-22T21:57:44.884Z,22.4
2023-05-22T21:59:44.901Z,22.3
2023-05-22T22:03:44.957Z,22.2
2023-05-22T22:05:44.854Z,22.1
2023-05-22T22:09:44.953Z,22.2
2023-05-22T22:11:44.856Z,22.0
2023-05-22T22:19:44.901Z,22.1
2023-05-22T22:21:44.880Z,22.0
2023-05-22T22:25:44.867Z,21.7
2023-05-22T22:27:44.895Z,21.6
2023-05-22T22:29:44.890Z,21.4
2023-05-22T22:31:44.950Z,21.3
2023-05-22T22:33:44.910Z,21.1
2023-05-22T22:39:44.925Z,21.0
2023-05-22T22:41:44.876Z,20.9
2023-05-22T22:43:44.885Z,21.0
2023-05-22T22:45:44.932Z,21.1
2023-05-22T22:49:44.906Z,21.0
2023-05-22T22:51:44.910Z,20.9
2023-05-22T22:53:44.890Z,20.8
2023-05-22T22:55:44.924Z,20.9
2023-05-22T22:57:44.934Z,20.8
2023-05-22T22:59:44.900Z,20.9
2023-05-22T23:01:44.990Z,20.8
2023-05-22T23:03:44.949Z,20.7
2023-05-22T23:05:45.222Z,20.4
2023-05-22T23:07:44.946Z,20.2
2023-05-22T23:09:44.985Z,20.1
2023-05-22T23:11:44.915Z,20.0
2023-05-22T23:13:44.947Z,20.1
2023-05-22T23:15:44.969Z,20.2
2023-05-22T23:25:44.935Z,20.1
2023-05-22T23:29:44.972Z,20.2
2023-05-22T23:37:44.951Z,20.0
2023-05-22T23:39:44.971Z,19.7
2023-05-22T23:41:44.933Z,19.5
2023-05-22T23:43:44.941Z,19.6
2023-05-22T23:45:44.974Z,19.4
2023-05-22T23:47:45.026Z,19.3
2023-05-22T23:51:45.286Z,19.4
2023-05-22T23:53:44.954Z,19.5
2023-05-22T23:55:44.962Z,19.4
2023-05-22T23:59:44.969Z,19.6
